FYWE

Eros Airport

Windhoek, Namibia
TAF FYWE 212000Z 2121/2206 05006KT CAVOK
Issued Valid From Valid To
Jul-21 @ 20:00 UTC
(3 hours ago)
Jul-21 @ 21:00 UTC
(2 hours ago)
Jul-22 @ 06:00 UTC
(in 7 hours)
Jul-21 @ 21:00 to Jul-22 @ 06:00
TAF FYWE 212000Z 2121/2206 05006KT CAVOK
Wind Visibility Clouds Conditions
50° at 6 knots 10,000+ meters
  • No significant clouds
TAF FYWE 212000Z 2121/2206 05006KT CAVOK
Issued Jul-21 @ 20:00 UTC
(3 hours ago)
Valid From Jul-21 @ 21:00 UTC
(2 hours ago)
Valid To Jul-22 @ 06:00 UTC
(in 7 hours)
Jul-21 @ 21:00 - Jul-22 @ 06:00
Wind Visibility
50° at 6 knots 10,000+ meters
Clouds
  • No significant clouds
Conditions